sensor_id;sensor_type;location;lat;lon;timestamp;P1;durP1;ratioP1;P2;durP2;ratioP2
80227;SDS011;69539;42.138;24.742;2023-07-13T00:02:06;13.90;;;11.13;;
80227;SDS011;69539;42.138;24.742;2023-07-13T00:04:32;14.52;;;11.20;;
80227;SDS011;69539;42.138;24.742;2023-07-13T00:06:58;14.52;;;11.30;;
80227;SDS011;69539;42.138;24.742;2023-07-13T00:09:24;13.93;;;11.88;;
80227;SDS011;69539;42.138;24.742;2023-07-13T00:11:54;14.98;;;11.55;;
80227;SDS011;69539;42.138;24.742;2023-07-13T00:14:21;14.80;;;11.63;;
80227;SDS011;69539;42.138;24.742;2023-07-13T00:16:47;14.05;;;11.38;;
80227;SDS011;69539;42.138;24.742;2023-07-13T00:19:13;13.35;;;11.30;;
80227;SDS011;69539;42.138;24.742;2023-07-13T00:21:39;14.27;;;11.00;;
80227;SDS011;69539;42.138;24.742;2023-07-13T00:24:06;13.15;;;11.35;;
80227;SDS011;69539;42.138;24.742;2023-07-13T00:26:33;13.52;;;11.15;;
80227;SDS011;69539;42.138;24.742;2023-07-13T00:28:59;12.55;;;11.23;;
80227;SDS011;69539;42.138;24.742;2023-07-13T00:31:25;14.30;;;11.27;;
80227;SDS011;69539;42.138;24.742;2023-07-13T00:33:51;14.38;;;10.80;;
80227;SDS011;69539;42.138;24.742;2023-07-13T00:36:16;12.18;;;10.88;;
80227;SDS011;69539;42.138;24.742;2023-07-13T00:38:45;12.40;;;11.02;;
80227;SDS011;69539;42.138;24.742;2023-07-13T00:41:12;13.02;;;10.80;;
80227;SDS011;69539;42.138;24.742;2023-07-13T00:43:37;12.07;;;10.88;;
80227;SDS011;69539;42.138;24.742;2023-07-13T00:46:20;11.75;;;10.55;;
80227;SDS011;69539;42.138;24.742;2023-07-13T00:48:49;12.18;;;10.52;;
80227;SDS011;69539;42.138;24.742;2023-07-13T00:51:28;11.73;;;10.20;;
80227;SDS011;69539;42.138;24.742;2023-07-13T00:53:59;11.77;;;10.55;;
80227;SDS011;69539;42.138;24.742;2023-07-13T00:56:29;11.80;;;10.52;;
80227;SDS011;69539;42.138;24.742;2023-07-13T00:58:56;11.70;;;10.15;;
80227;SDS011;69539;42.138;24.742;2023-07-13T01:01:22;12.57;;;9.90;;
80227;SDS011;69539;42.138;24.742;2023-07-13T01:03:48;10.55;;;9.45;;
80227;SDS011;69539;42.138;24.742;2023-07-13T01:06:15;11.18;;;9.60;;
80227;SDS011;69539;42.138;24.742;2023-07-13T01:08:42;10.38;;;9.15;;
80227;SDS011;69539;42.138;24.742;2023-07-13T01:11:08;10.43;;;9.27;;
80227;SDS011;69539;42.138;24.742;2023-07-13T01:13:34;10.18;;;9.07;;
80227;SDS011;69539;42.138;24.742;2023-07-13T01:16:01;11.93;;;9.20;;
80227;SDS011;69539;42.138;24.742;2023-07-13T01:18:36;11.65;;;9.50;;
80227;SDS011;69539;42.138;24.742;2023-07-13T01:21:03;13.15;;;9.63;;
80227;SDS011;69539;42.138;24.742;2023-07-13T01:23:29;11.25;;;9.00;;
80227;SDS011;69539;42.138;24.742;2023-07-13T01:25:56;11.30;;;9.30;;
80227;SDS011;69539;42.138;24.742;2023-07-13T01:28:23;9.68;;;8.38;;
80227;SDS011;69539;42.138;24.742;2023-07-13T01:30:52;9.93;;;8.90;;
80227;SDS011;69539;42.138;24.742;2023-07-13T01:33:19;10.27;;;8.88;;
80227;SDS011;69539;42.138;24.742;2023-07-13T01:35:45;12.20;;;8.90;;
80227;SDS011;69539;42.138;24.742;2023-07-13T01:38:13;10.85;;;9.20;;
80227;SDS011;69539;42.138;24.742;2023-07-13T01:40:39;11.82;;;8.73;;
80227;SDS011;69539;42.138;24.742;2023-07-13T01:43:05;11.90;;;9.10;;
80227;SDS011;69539;42.138;24.742;2023-07-13T01:45:31;10.05;;;8.63;;
80227;SDS011;69539;42.138;24.742;2023-07-13T01:47:57;9.98;;;8.98;;
80227;SDS011;69539;42.138;24.742;2023-07-13T01:50:23;9.82;;;8.82;;
80227;SDS011;69539;42.138;24.742;2023-07-13T01:52:49;9.85;;;8.80;;
80227;SDS011;69539;42.138;24.742;2023-07-13T01:55:15;10.60;;;8.90;;
80227;SDS011;69539;42.138;24.742;2023-07-13T01:57:41;10.60;;;8.85;;
80227;SDS011;69539;42.138;24.742;2023-07-13T02:00:08;11.07;;;8.70;;
80227;SDS011;69539;42.138;24.742;2023-07-13T02:02:35;10.30;;;9.23;;
80227;SDS011;69539;42.138;24.742;2023-07-13T02:05:00;9.55;;;8.40;;
80227;SDS011;69539;42.138;24.742;2023-07-13T02:07:26;10.30;;;9.25;;
80227;SDS011;69539;42.138;24.742;2023-07-13T02:09:52;9.32;;;8.27;;
80227;SDS011;69539;42.138;24.742;2023-07-13T02:12:17;10.15;;;8.82;;
80227;SDS011;69539;42.138;24.742;2023-07-13T02:14:43;9.85;;;8.82;;
80227;SDS011;69539;42.138;24.742;2023-07-13T02:17:09;9.23;;;8.32;;
80227;SDS011;69539;42.138;24.742;2023-07-13T02:19:35;9.55;;;8.43;;
80227;SDS011;69539;42.138;24.742;2023-07-13T02:22:01;9.70;;;8.70;;
80227;SDS011;69539;42.138;24.742;2023-07-13T02:24:27;10.13;;;8.73;;
80227;SDS011;69539;42.138;24.742;2023-07-13T02:26:53;9.95;;;8.93;;
80227;SDS011;69539;42.138;24.742;2023-07-13T02:29:19;9.88;;;8.70;;
80227;SDS011;69539;42.138;24.742;2023-07-13T02:31:44;11.27;;;8.82;;
80227;SDS011;69539;42.138;24.742;2023-07-13T02:34:10;10.77;;;8.80;;
80227;SDS011;69539;42.138;24.742;2023-07-13T02:36:36;9.50;;;8.13;;
80227;SDS011;69539;42.138;24.742;2023-07-13T02:39:02;12.13;;;9.05;;
80227;SDS011;69539;42.138;24.742;2023-07-13T02:41:30;10.07;;;8.65;;
80227;SDS011;69539;42.138;24.742;2023-07-13T02:43:57;10.43;;;8.43;;
80227;SDS011;69539;42.138;24.742;2023-07-13T02:46:31;12.18;;;8.18;;
80227;SDS011;69539;42.138;24.742;2023-07-13T02:48:57;11.38;;;8.70;;
80227;SDS011;69539;42.138;24.742;2023-07-13T02:51:23;14.20;;;8.65;;
80227;SDS011;69539;42.138;24.742;2023-07-13T02:53:49;13.85;;;9.00;;
80227;SDS011;69539;42.138;24.742;2023-07-13T02:56:14;13.73;;;9.15;;
80227;SDS011;69539;42.138;24.742;2023-07-13T02:58:40;9.88;;;8.48;;
80227;SDS011;69539;42.138;24.742;2023-07-13T03:01:07;11.38;;;8.55;;
80227;SDS011;69539;42.138;24.742;2023-07-13T03:06:00;10.77;;;8.80;;
80227;SDS011;69539;42.138;24.742;2023-07-13T03:08:28;10.13;;;8.32;;
80227;SDS011;69539;42.138;24.742;2023-07-13T03:11:04;11.68;;;8.55;;
80227;SDS011;69539;42.138;24.742;2023-07-13T03:13:32;9.43;;;8.35;;
80227;SDS011;69539;42.138;24.742;2023-07-13T03:15:57;11.02;;;8.77;;
80227;SDS011;69539;42.138;24.742;2023-07-13T03:18:23;11.57;;;8.75;;
80227;SDS011;69539;42.138;24.742;2023-07-13T03:20:50;11.52;;;9.23;;
80227;SDS011;69539;42.138;24.742;2023-07-13T03:23:17;11.00;;;8.52;;
80227;SDS011;69539;42.138;24.742;2023-07-13T03:25:43;9.70;;;8.52;;
80227;SDS011;69539;42.138;24.742;2023-07-13T03:28:10;10.18;;;8.85;;
80227;SDS011;69539;42.138;24.742;2023-07-13T03:30:36;10.02;;;9.02;;
80227;SDS011;69539;42.138;24.742;2023-07-13T03:33:02;9.70;;;8.70;;
80227;SDS011;69539;42.138;24.742;2023-07-13T03:35:27;10.00;;;7.97;;
80227;SDS011;69539;42.138;24.742;2023-07-13T03:37:53;9.05;;;8.02;;
80227;SDS011;69539;42.138;24.742;2023-07-13T03:40:19;10.05;;;8.85;;
80227;SDS011;69539;42.138;24.742;2023-07-13T03:42:45;10.00;;;8.40;;
80227;SDS011;69539;42.138;24.742;2023-07-13T03:45:10;13.10;;;8.88;;
80227;SDS011;69539;42.138;24.742;2023-07-13T03:47:36;12.85;;;9.00;;
80227;SDS011;69539;42.138;24.742;2023-07-13T03:50:02;14.30;;;8.98;;
80227;SDS011;69539;42.138;24.742;2023-07-13T03:52:28;11.57;;;8.77;;
80227;SDS011;69539;42.138;24.742;2023-07-13T03:54:54;10.68;;;9.15;;
80227;SDS011;69539;42.138;24.742;2023-07-13T03:57:20;11.40;;;9.25;;
80227;SDS011;69539;42.138;24.742;2023-07-13T03:59:45;10.65;;;8.65;;
80227;SDS011;69539;42.138;24.742;2023-07-13T04:02:11;11.40;;;8.93;;
80227;SDS011;69539;42.138;24.742;2023-07-13T04:04:37;11.98;;;9.02;;
80227;SDS011;69539;42.138;24.742;2023-07-13T04:07:05;14.25;;;9.23;;
80227;SDS011;69539;42.138;24.742;2023-07-13T04:09:32;11.25;;;8.93;;
80227;SDS011;69539;42.138;24.742;2023-07-13T04:11:58;12.02;;;8.60;;
80227;SDS011;69539;42.138;24.742;2023-07-13T04:14:23;13.23;;;9.57;;
80227;SDS011;69539;42.138;24.742;2023-07-13T04:16:49;13.30;;;9.73;;
80227;SDS011;69539;42.138;24.742;2023-07-13T04:19:14;10.93;;;9.65;;
80227;SDS011;69539;42.138;24.742;2023-07-13T04:21:40;12.27;;;9.05;;
80227;SDS011;69539;42.138;24.742;2023-07-13T04:24:06;10.88;;;9.00;;
80227;SDS011;69539;42.138;24.742;2023-07-13T04:26:32;11.70;;;9.48;;
80227;SDS011;69539;42.138;24.742;2023-07-13T04:29:01;10.30;;;9.20;;
80227;SDS011;69539;42.138;24.742;2023-07-13T04:33:54;10.65;;;9.65;;
80227;SDS011;69539;42.138;24.742;2023-07-13T04:36:20;10.43;;;9.32;;
80227;SDS011;69539;42.138;24.742;2023-07-13T04:38:45;12.07;;;10.05;;
80227;SDS011;69539;42.138;24.742;2023-07-13T04:41:12;11.73;;;9.73;;
80227;SDS011;69539;42.138;24.742;2023-07-13T04:43:39;11.40;;;10.27;;
80227;SDS011;69539;42.138;24.742;2023-07-13T04:46:09;11.90;;;10.70;;
80227;SDS011;69539;42.138;24.742;2023-07-13T04:48:37;14.85;;;10.35;;
80227;SDS011;69539;42.138;24.742;2023-07-13T04:51:03;12.88;;;11.23;;
80227;SDS011;69539;42.138;24.742;2023-07-13T04:53:29;11.82;;;10.63;;
80227;SDS011;69539;42.138;24.742;2023-07-13T04:55:55;12.77;;;11.20;;
80227;SDS011;69539;42.138;24.742;2023-07-13T04:58:22;12.52;;;10.07;;
80227;SDS011;69539;42.138;24.742;2023-07-13T05:00:48;14.23;;;11.13;;
80227;SDS011;69539;42.138;24.742;2023-07-13T05:03:14;14.00;;;11.10;;
80227;SDS011;69539;42.138;24.742;2023-07-13T05:05:39;12.68;;;11.20;;
80227;SDS011;69539;42.138;24.742;2023-07-13T05:08:05;13.00;;;11.18;;
80227;SDS011;69539;42.138;24.742;2023-07-13T05:10:32;13.03;;;11.17;;
80227;SDS011;69539;42.138;24.742;2023-07-13T05:12:58;13.10;;;11.63;;
80227;SDS011;69539;42.138;24.742;2023-07-13T05:15:23;12.68;;;11.38;;
80227;SDS011;69539;42.138;24.742;2023-07-13T05:17:50;351.70;;;312.88;;
80227;SDS011;69539;42.138;24.742;2023-07-13T05:20:16;396.38;;;353.17;;
80227;SDS011;69539;42.138;24.742;2023-07-13T05:22:43;654.05;;;591.38;;
80227;SDS011;69539;42.138;24.742;2023-07-13T05:25:11;285.17;;;257.23;;
80227;SDS011;69539;42.138;24.742;2023-07-13T05:27:38;228.13;;;204.75;;
80227;SDS011;69539;42.138;24.742;2023-07-13T05:30:04;146.73;;;131.70;;
80227;SDS011;69539;42.138;24.742;2023-07-13T05:32:30;341.27;;;306.90;;
80227;SDS011;69539;42.138;24.742;2023-07-13T05:34:56;342.48;;;308.20;;
80227;SDS011;69539;42.138;24.742;2023-07-13T05:37:22;538.45;;;488.52;;
80227;SDS011;69539;42.138;24.742;2023-07-13T05:39:47;353.42;;;318.73;;
80227;SDS011;69539;42.138;24.742;2023-07-13T05:42:13;230.85;;;208.90;;
80227;SDS011;69539;42.138;24.742;2023-07-13T05:44:39;298.75;;;270.25;;
80227;SDS011;69539;42.138;24.742;2023-07-13T05:47:05;217.75;;;197.35;;
80227;SDS011;69539;42.138;24.742;2023-07-13T05:49:31;576.70;;;521.65;;
80227;SDS011;69539;42.138;24.742;2023-07-13T05:51:57;813.38;;;733.65;;
80227;SDS011;69539;42.138;24.742;2023-07-13T05:54:24;601.33;;;547.53;;
80227;SDS011;69539;42.138;24.742;2023-07-13T05:56:49;776.45;;;700.60;;
80227;SDS011;69539;42.138;24.742;2023-07-13T05:59:15;774.97;;;700.78;;
80227;SDS011;69539;42.138;24.742;2023-07-13T06:01:42;469.95;;;424.50;;
80227;SDS011;69539;42.138;24.742;2023-07-13T06:04:08;320.95;;;289.42;;
80227;SDS011;69539;42.138;24.742;2023-07-13T06:06:33;276.05;;;249.18;;
80227;SDS011;69539;42.138;24.742;2023-07-13T06:08:59;222.95;;;201.27;;
80227;SDS011;69539;42.138;24.742;2023-07-13T06:11:26;175.07;;;158.02;;
80227;SDS011;69539;42.138;24.742;2023-07-13T06:16:19;93.40;;;84.47;;
80227;SDS011;69539;42.138;24.742;2023-07-13T06:18:44;73.50;;;66.43;;
80227;SDS011;69539;42.138;24.742;2023-07-13T06:21:14;64.38;;;58.15;;
80227;SDS011;69539;42.138;24.742;2023-07-13T06:23:42;44.97;;;40.53;;
80227;SDS011;69539;42.138;24.742;2023-07-13T06:26:09;35.80;;;32.33;;
80227;SDS011;69539;42.138;24.742;2023-07-13T06:28:35;32.27;;;29.07;;
80227;SDS011;69539;42.138;24.742;2023-07-13T06:31:04;30.00;;;26.80;;
80227;SDS011;69539;42.138;24.742;2023-07-13T06:33:31;25.30;;;22.90;;
80227;SDS011;69539;42.138;24.742;2023-07-13T06:35:57;23.60;;;21.23;;
80227;SDS011;69539;42.138;24.742;2023-07-13T06:38:22;22.63;;;20.27;;
80227;SDS011;69539;42.138;24.742;2023-07-13T06:40:48;20.52;;;18.52;;
80227;SDS011;69539;42.138;24.742;2023-07-13T06:43:14;18.83;;;17.02;;
80227;SDS011;69539;42.138;24.742;2023-07-13T06:45:40;117.93;;;107.20;;
80227;SDS011;69539;42.138;24.742;2023-07-13T06:48:10;205.65;;;186.82;;
80227;SDS011;69539;42.138;24.742;2023-07-13T06:50:36;263.40;;;237.73;;
80227;SDS011;69539;42.138;24.742;2023-07-13T06:53:02;172.02;;;155.25;;
80227;SDS011;69539;42.138;24.742;2023-07-13T06:55:28;117.13;;;106.00;;
80227;SDS011;69539;42.138;24.742;2023-07-13T06:57:54;88.78;;;80.43;;
80227;SDS011;69539;42.138;24.742;2023-07-13T07:00:19;65.07;;;58.85;;
80227;SDS011;69539;42.138;24.742;2023-07-13T07:02:45;82.63;;;75.43;;
80227;SDS011;69539;42.138;24.742;2023-07-13T07:05:11;221.70;;;201.18;;
80227;SDS011;69539;42.138;24.742;2023-07-13T07:07:37;368.13;;;330.73;;
80227;SDS011;69539;42.138;24.742;2023-07-13T07:10:03;284.85;;;257.88;;
80227;SDS011;69539;42.138;24.742;2023-07-13T07:12:29;184.10;;;167.18;;
80227;SDS011;69539;42.138;24.742;2023-07-13T07:14:54;131.18;;;118.63;;
80227;SDS011;69539;42.138;24.742;2023-07-13T07:17:20;92.78;;;84.22;;
80227;SDS011;69539;42.138;24.742;2023-07-13T07:19:46;73.57;;;66.00;;
80227;SDS011;69539;42.138;24.742;2023-07-13T07:22:12;48.78;;;44.08;;
80227;SDS011;69539;42.138;24.742;2023-07-13T07:24:37;35.63;;;32.03;;
80227;SDS011;69539;42.138;24.742;2023-07-13T07:27:03;27.67;;;24.88;;
80227;SDS011;69539;42.138;24.742;2023-07-13T07:29:29;24.70;;;22.10;;
80227;SDS011;69539;42.138;24.742;2023-07-13T07:31:55;23.23;;;19.13;;
80227;SDS011;69539;42.138;24.742;2023-07-13T07:34:20;19.63;;;17.67;;
80227;SDS011;69539;42.138;24.742;2023-07-13T07:36:46;16.17;;;14.48;;
80227;SDS011;69539;42.138;24.742;2023-07-13T07:39:12;16.08;;;14.45;;
80227;SDS011;69539;42.138;24.742;2023-07-13T07:41:38;15.05;;;13.50;;
80227;SDS011;69539;42.138;24.742;2023-07-13T07:44:04;14.95;;;13.40;;
80227;SDS011;69539;42.138;24.742;2023-07-13T07:46:31;15.18;;;13.82;;
80227;SDS011;69539;42.138;24.742;2023-07-13T07:48:57;14.00;;;12.45;;
80227;SDS011;69539;42.138;24.742;2023-07-13T07:51:23;170.27;;;156.30;;
80227;SDS011;69539;42.138;24.742;2023-07-13T07:53:48;380.35;;;345.33;;
80227;SDS011;69539;42.138;24.742;2023-07-13T07:56:14;552.55;;;502.23;;
80227;SDS011;69539;42.138;24.742;2023-07-13T07:58:41;275.67;;;250.13;;
80227;SDS011;69539;42.138;24.742;2023-07-13T08:01:07;153.88;;;139.07;;
80227;SDS011;69539;42.138;24.742;2023-07-13T08:03:33;93.47;;;84.97;;
80227;SDS011;69539;42.138;24.742;2023-07-13T08:05:59;60.65;;;55.30;;
80227;SDS011;69539;42.138;24.742;2023-07-13T08:08:25;49.92;;;45.42;;
80227;SDS011;69539;42.138;24.742;2023-07-13T08:10:51;38.65;;;35.17;;
80227;SDS011;69539;42.138;24.742;2023-07-13T08:13:17;33.65;;;30.48;;
80227;SDS011;69539;42.138;24.742;2023-07-13T08:15:43;27.13;;;24.58;;
80227;SDS011;69539;42.138;24.742;2023-07-13T08:18:09;23.35;;;21.17;;
80227;SDS011;69539;42.138;24.742;2023-07-13T08:20:38;19.58;;;17.75;;
80227;SDS011;69539;42.138;24.742;2023-07-13T08:23:04;16.23;;;14.52;;
80227;SDS011;69539;42.138;24.742;2023-07-13T08:25:30;17.70;;;13.25;;
80227;SDS011;69539;42.138;24.742;2023-07-13T08:27:56;14.45;;;12.85;;
80227;SDS011;69539;42.138;24.742;2023-07-13T08:30:21;14.27;;;12.63;;
80227;SDS011;69539;42.138;24.742;2023-07-13T08:32:48;16.40;;;12.93;;
80227;SDS011;69539;42.138;24.742;2023-07-13T08:35:14;13.75;;;12.35;;
80227;SDS011;69539;42.138;24.742;2023-07-13T08:37:41;15.00;;;12.38;;
80227;SDS011;69539;42.138;24.742;2023-07-13T08:40:08;12.50;;;11.23;;
80227;SDS011;69539;42.138;24.742;2023-07-13T08:47:47;13.65;;;11.73;;
80227;SDS011;69539;42.138;24.742;2023-07-13T08:50:25;14.15;;;11.48;;
80227;SDS011;69539;42.138;24.742;2023-07-13T08:52:55;13.35;;;11.35;;
80227;SDS011;69539;42.138;24.742;2023-07-13T08:55:24;16.07;;;10.80;;
80227;SDS011;69539;42.138;24.742;2023-07-13T08:57:59;13.05;;;11.70;;
80227;SDS011;69539;42.138;24.742;2023-07-13T09:03:28;11.95;;;10.52;;
80227;SDS011;69539;42.138;24.742;2023-07-13T09:06:13;12.15;;;10.95;;
80227;SDS011;69539;42.138;24.742;2023-07-13T09:08:48;12.43;;;10.93;;
80227;SDS011;69539;42.138;24.742;2023-07-13T09:16:56;12.20;;;10.95;;
80227;SDS011;69539;42.138;24.742;2023-07-13T09:19:24;13.00;;;11.13;;
80227;SDS011;69539;42.138;24.742;2023-07-13T09:21:53;11.55;;;10.35;;
80227;SDS011;69539;42.138;24.742;2023-07-13T09:24:47;11.65;;;10.45;;
80227;SDS011;69539;42.138;24.742;2023-07-13T09:27:31;11.00;;;9.93;;
80227;SDS011;69539;42.138;24.742;2023-07-13T09:30:17;11.68;;;10.15;;
80227;SDS011;69539;42.138;24.742;2023-07-13T09:32:50;11.95;;;9.98;;
80227;SDS011;69539;42.138;24.742;2023-07-13T09:35:27;10.13;;;8.82;;
80227;SDS011;69539;42.138;24.742;2023-07-13T09:37:58;11.00;;;8.90;;
80227;SDS011;69539;42.138;24.742;2023-07-13T09:40:30;10.70;;;9.00;;
80227;SDS011;69539;42.138;24.742;2023-07-13T09:43:18;9.68;;;8.70;;
80227;SDS011;69539;42.138;24.742;2023-07-13T09:45:46;9.98;;;8.80;;
80227;SDS011;69539;42.138;24.742;2023-07-13T09:48:13;15.50;;;8.23;;
80227;SDS011;69539;42.138;24.742;2023-07-13T09:50:40;67.18;;;61.97;;
80227;SDS011;69539;42.138;24.742;2023-07-13T09:53:14;399.38;;;361.65;;
80227;SDS011;69539;42.138;24.742;2023-07-13T09:55:43;321.17;;;290.63;;
80227;SDS011;69539;42.138;24.742;2023-07-13T09:58:14;181.23;;;164.43;;
80227;SDS011;69539;42.138;24.742;2023-07-13T10:00:54;82.10;;;74.53;;
80227;SDS011;69539;42.138;24.742;2023-07-13T10:03:23;55.08;;;49.65;;
80227;SDS011;69539;42.138;24.742;2023-07-13T10:05:57;43.42;;;39.45;;
80227;SDS011;69539;42.138;24.742;2023-07-13T10:08:36;29.00;;;26.30;;
80227;SDS011;69539;42.138;24.742;2023-07-13T10:11:17;25.40;;;22.92;;
80227;SDS011;69539;42.138;24.742;2023-07-13T10:13:53;18.23;;;16.35;;
80227;SDS011;69539;42.138;24.742;2023-07-13T10:16:34;29.88;;;27.10;;
80227;SDS011;69539;42.138;24.742;2023-07-13T10:19:02;629.70;;;576.13;;
80227;SDS011;69539;42.138;24.742;2023-07-13T10:21:33;579.33;;;528.20;;
80227;SDS011;69539;42.138;24.742;2023-07-13T10:24:14;356.50;;;323.65;;
80227;SDS011;69539;42.138;24.742;2023-07-13T10:26:46;205.18;;;186.60;;
80227;SDS011;69539;42.138;24.742;2023-07-13T10:29:20;148.32;;;134.85;;
80227;SDS011;69539;42.138;24.742;2023-07-13T10:31:49;109.68;;;100.13;;
80227;SDS011;69539;42.138;24.742;2023-07-13T10:34:15;65.93;;;60.07;;
80227;SDS011;69539;42.138;24.742;2023-07-13T10:36:43;50.30;;;45.80;;
80227;SDS011;69539;42.138;24.742;2023-07-13T10:41:44;636.95;;;582.13;;
80227;SDS011;69539;42.138;24.742;2023-07-13T10:44:18;436.55;;;397.38;;
80227;SDS011;69539;42.138;24.742;2023-07-13T10:47:03;648.08;;;591.70;;
80227;SDS011;69539;42.138;24.742;2023-07-13T10:49:38;404.23;;;366.58;;
80227;SDS011;69539;42.138;24.742;2023-07-13T10:52:20;192.90;;;175.70;;
80227;SDS011;69539;42.138;24.742;2023-07-13T10:55:33;87.07;;;79.57;;
80227;SDS011;69539;42.138;24.742;2023-07-13T11:01:11;54.03;;;49.13;;
80227;SDS011;69539;42.138;24.742;2023-07-13T11:08:57;22.52;;;20.38;;
80227;SDS011;69539;42.138;24.742;2023-07-13T11:14:04;12.63;;;11.32;;
80227;SDS011;69539;42.138;24.742;2023-07-13T11:16:50;12.02;;;8.77;;
80227;SDS011;69539;42.138;24.742;2023-07-13T11:41:44;9.02;;;6.47;;
80227;SDS011;69539;42.138;24.742;2023-07-13T11:44:22;7.90;;;7.10;;
80227;SDS011;69539;42.138;24.742;2023-07-13T11:46:50;8.18;;;6.72;;
80227;SDS011;69539;42.138;24.742;2023-07-13T11:49:21;11.85;;;7.70;;
80227;SDS011;69539;42.138;24.742;2023-07-13T11:51:49;9.63;;;7.32;;
80227;SDS011;69539;42.138;24.742;2023-07-13T11:54:32;8.23;;;7.18;;
80227;SDS011;69539;42.138;24.742;2023-07-13T12:00:00;8.20;;;7.25;;
80227;SDS011;69539;42.138;24.742;2023-07-13T12:02:38;10.15;;;7.00;;
80227;SDS011;69539;42.138;24.742;2023-07-13T12:05:09;8.18;;;7.10;;
80227;SDS011;69539;42.138;24.742;2023-07-13T12:07:38;9.35;;;6.90;;
80227;SDS011;69539;42.138;24.742;2023-07-13T12:10:16;8.63;;;6.75;;
80227;SDS011;69539;42.138;24.742;2023-07-13T12:12:51;9.30;;;6.28;;
80227;SDS011;69539;42.138;24.742;2023-07-13T12:15:20;9.18;;;6.32;;
80227;SDS011;69539;42.138;24.742;2023-07-13T12:17:47;9.80;;;6.53;;
80227;SDS011;69539;42.138;24.742;2023-07-13T12:20:21;8.48;;;6.35;;
80227;SDS011;69539;42.138;24.742;2023-07-13T12:22:51;9.25;;;6.53;;
80227;SDS011;69539;42.138;24.742;2023-07-13T12:25:17;9.82;;;6.40;;
80227;SDS011;69539;42.138;24.742;2023-07-13T12:27:48;9.57;;;6.22;;
80227;SDS011;69539;42.138;24.742;2023-07-13T12:30:21;10.60;;;6.25;;
80227;SDS011;69539;42.138;24.742;2023-07-13T12:35:50;7.57;;;6.10;;
80227;SDS011;69539;42.138;24.742;2023-07-13T12:38:17;79.63;;;72.35;;
80227;SDS011;69539;42.138;24.742;2023-07-13T12:40:48;197.40;;;179.85;;
80227;SDS011;69539;42.138;24.742;2023-07-13T12:43:15;148.52;;;135.00;;
80227;SDS011;69539;42.138;24.742;2023-07-13T12:45:55;201.80;;;183.63;;
80227;SDS011;69539;42.138;24.742;2023-07-13T12:48:26;94.88;;;86.57;;
80227;SDS011;69539;42.138;24.742;2023-07-13T12:50:53;63.27;;;57.63;;
80227;SDS011;69539;42.138;24.742;2023-07-13T12:53:21;32.72;;;29.77;;
80227;SDS011;69539;42.138;24.742;2023-07-13T12:55:50;25.75;;;23.25;;
80227;SDS011;69539;42.138;24.742;2023-07-13T12:58:25;17.45;;;15.68;;
80227;SDS011;69539;42.138;24.742;2023-07-13T13:00:57;17.35;;;15.43;;
80227;SDS011;69539;42.138;24.742;2023-07-13T13:03:32;34.33;;;31.45;;
80227;SDS011;69539;42.138;24.742;2023-07-13T13:06:02;138.55;;;125.55;;
80227;SDS011;69539;42.138;24.742;2023-07-13T13:08:33;168.18;;;152.93;;
80227;SDS011;69539;42.138;24.742;2023-07-13T13:11:00;134.10;;;121.78;;
80227;SDS011;69539;42.138;24.742;2023-07-13T13:13:27;111.30;;;101.28;;
80227;SDS011;69539;42.138;24.742;2023-07-13T13:15:53;64.00;;;58.28;;
80227;SDS011;69539;42.138;24.742;2023-07-13T13:18:20;43.13;;;39.05;;
80227;SDS011;69539;42.138;24.742;2023-07-13T13:20:47;31.73;;;28.67;;
80227;SDS011;69539;42.138;24.742;2023-07-13T13:23:15;22.17;;;19.92;;
80227;SDS011;69539;42.138;24.742;2023-07-13T13:25:42;17.80;;;15.00;;
80227;SDS011;69539;42.138;24.742;2023-07-13T13:28:16;17.35;;;12.05;;
80227;SDS011;69539;42.138;24.742;2023-07-13T13:30:44;16.70;;;11.02;;
80227;SDS011;69539;42.138;24.742;2023-07-13T13:33:12;14.95;;;10.02;;
80227;SDS011;69539;42.138;24.742;2023-07-13T13:35:40;100.85;;;92.55;;
80227;SDS011;69539;42.138;24.742;2023-07-13T13:38:17;183.52;;;167.63;;
80227;SDS011;69539;42.138;24.742;2023-07-13T13:40:46;132.05;;;120.47;;
80227;SDS011;69539;42.138;24.742;2023-07-13T13:45:45;68.90;;;62.70;;
80227;SDS011;69539;42.138;24.742;2023-07-13T13:48:18;45.78;;;41.42;;
80227;SDS011;69539;42.138;24.742;2023-07-13T13:50:47;32.95;;;29.65;;
80227;SDS011;69539;42.138;24.742;2023-07-13T13:53:14;27.25;;;24.30;;
80227;SDS011;69539;42.138;24.742;2023-07-13T13:55:40;20.27;;;17.63;;
80227;SDS011;69539;42.138;24.742;2023-07-13T14:00:35;14.65;;;11.88;;
80227;SDS011;69539;42.138;24.742;2023-07-13T14:03:04;12.70;;;8.65;;
80227;SDS011;69539;42.138;24.742;2023-07-13T14:05:32;14.50;;;7.90;;
80227;SDS011;69539;42.138;24.742;2023-07-13T14:07:57;12.30;;;7.65;;
80227;SDS011;69539;42.138;24.742;2023-07-13T14:10:24;9.98;;;7.50;;
80227;SDS011;69539;42.138;24.742;2023-07-13T14:12:53;10.43;;;6.78;;
80227;SDS011;69539;42.138;24.742;2023-07-13T14:15:23;10.68;;;7.38;;
80227;SDS011;69539;42.138;24.742;2023-07-13T14:17:55;11.68;;;7.05;;
80227;SDS011;69539;42.138;24.742;2023-07-13T14:20:22;9.10;;;7.13;;
80227;SDS011;69539;42.138;24.742;2023-07-13T14:25:17;143.77;;;132.13;;
80227;SDS011;69539;42.138;24.742;2023-07-13T14:27:45;104.72;;;95.57;;
80227;SDS011;69539;42.138;24.742;2023-07-13T14:30:14;48.38;;;43.70;;
80227;SDS011;69539;42.138;24.742;2023-07-13T14:32:41;33.13;;;29.73;;
80227;SDS011;69539;42.138;24.742;2023-07-13T14:35:10;25.17;;;22.67;;
80227;SDS011;69539;42.138;24.742;2023-07-13T14:37:37;17.35;;;15.25;;
80227;SDS011;69539;42.138;24.742;2023-07-13T14:40:27;15.02;;;10.68;;
80227;SDS011;69539;42.138;24.742;2023-07-13T14:42:55;15.90;;;8.50;;
80227;SDS011;69539;42.138;24.742;2023-07-13T14:45:20;14.20;;;8.20;;
80227;SDS011;69539;42.138;24.742;2023-07-13T14:47:46;11.57;;;7.88;;
80227;SDS011;69539;42.138;24.742;2023-07-13T14:50:16;9.20;;;7.60;;
80227;SDS011;69539;42.138;24.742;2023-07-13T14:52:48;11.05;;;7.18;;
80227;SDS011;69539;42.138;24.742;2023-07-13T14:55:15;12.38;;;7.55;;
80227;SDS011;69539;42.138;24.742;2023-07-13T14:57:42;11.00;;;7.43;;
80227;SDS011;69539;42.138;24.742;2023-07-13T15:02:41;10.23;;;6.85;;
80227;SDS011;69539;42.138;24.742;2023-07-13T15:05:13;11.95;;;7.22;;
80227;SDS011;69539;42.138;24.742;2023-07-13T15:07:41;12.43;;;7.25;;
80227;SDS011;69539;42.138;24.742;2023-07-13T15:10:17;10.70;;;7.03;;
80227;SDS011;69539;42.138;24.742;2023-07-13T15:12:47;10.52;;;7.13;;
80227;SDS011;69539;42.138;24.742;2023-07-13T15:15:15;11.48;;;7.10;;
80227;SDS011;69539;42.138;24.742;2023-07-13T15:17:42;11.90;;;6.75;;
80227;SDS011;69539;42.138;24.742;2023-07-13T15:22:55;10.35;;;7.47;;
80227;SDS011;69539;42.138;24.742;2023-07-13T15:25:23;12.18;;;7.45;;
80227;SDS011;69539;42.138;24.742;2023-07-13T15:27:52;12.05;;;7.28;;
80227;SDS011;69539;42.138;24.742;2023-07-13T15:30:18;8.80;;;6.82;;
80227;SDS011;69539;42.138;24.742;2023-07-13T15:32:45;11.40;;;6.82;;
80227;SDS011;69539;42.138;24.742;2023-07-13T15:35:18;11.37;;;7.33;;